sensor_id;sensor_type;location;lat;lon;timestamp;pressure;altitude;pressure_sealevel;temperature;humidity
57904;BME280;43720;47.462;19.030;2024-02-23T04:50:45;98968.06;;;9.45;100.00
57904;BME280;43720;47.462;19.030;2024-02-23T04:53:47;98965.41;;;9.54;100.00
57904;BME280;43720;47.462;19.030;2024-02-23T04:56:49;98967.97;;;9.63;100.00
57904;BME280;43720;47.462;19.030;2024-02-23T04:59:52;98965.34;;;9.66;100.00
57904;BME280;43720;47.462;19.030;2024-02-23T05:02:54;98967.94;;;9.68;100.00
57904;BME280;43720;47.462;19.030;2024-02-23T05:05:57;98967.94;;;9.74;100.00
57904;BME280;43720;47.462;19.030;2024-02-23T05:09:00;98967.91;;;9.77;100.00
57904;BME280;43720;47.462;19.030;2024-02-23T05:12:02;98973.13;;;9.77;100.00
57904;BME280;43720;47.462;19.030;2024-02-23T05:15:05;98980.06;;;9.84;100.00
57904;BME280;43720;47.462;19.030;2024-02-23T05:18:08;98984.47;;;9.73;100.00
57904;BME280;43720;47.462;19.030;2024-02-23T05:21:10;98994.09;;;9.54;100.00
57904;BME280;43720;47.462;19.030;2024-02-23T05:24:12;98998.50;;;9.37;100.00
57904;BME280;43720;47.462;19.030;2024-02-23T05:27:15;99003.75;;;9.30;100.00
57904;BME280;43720;47.462;19.030;2024-02-23T05:30:17;99003.75;;;9.24;100.00
57904;BME280;43720;47.462;19.030;2024-02-23T05:33:19;99003.78;;;9.23;100.00
57904;BME280;43720;47.462;19.030;2024-02-23T05:36:23;99015.06;;;9.20;100.00
57904;BME280;43720;47.462;19.030;2024-02-23T05:39:25;99021.16;;;9.12;100.00
57904;BME280;43720;47.462;19.030;2024-02-23T05:42:27;99032.47;;;9.04;100.00
57904;BME280;43720;47.462;19.030;2024-02-23T05:45:29;99041.16;;;9.00;100.00
57904;BME280;43720;47.462;19.030;2024-02-23T05:48:32;99047.25;;;8.95;100.00
57904;BME280;43720;47.462;19.030;2024-02-23T05:51:34;99056.78;;;8.87;100.00
57904;BME280;43720;47.462;19.030;2024-02-23T05:54:37;99055.06;;;8.76;100.00
57904;BME280;43720;47.462;19.030;2024-02-23T05:57:40;99072.44;;;8.68;100.00
57904;BME280;43720;47.462;19.030;2024-02-23T06:00:42;99081.13;;;8.73;100.00
57904;BME280;43720;47.462;19.030;2024-02-23T06:03:45;99083.72;;;8.70;100.00
57904;BME280;43720;47.462;19.030;2024-02-23T06:06:47;99090.66;;;8.61;100.00
57904;BME280;43720;47.462;19.030;2024-02-23T06:09:50;99085.44;;;8.62;100.00
57904;BME280;43720;47.462;19.030;2024-02-23T06:12:52;99090.66;;;8.67;100.00
57904;BME280;43720;47.462;19.030;2024-02-23T06:15:59;99092.41;;;8.66;100.00
57904;BME280;43720;47.462;19.030;2024-02-23T06:19:01;99099.34;;;8.60;100.00
57904;BME280;43720;47.462;19.030;2024-02-23T06:22:05;99101.97;;;8.60;100.00
57904;BME280;43720;47.462;19.030;2024-02-23T06:25:08;99109.75;;;8.55;100.00
57904;BME280;43720;47.462;19.030;2024-02-23T06:28:11;99112.34;;;8.58;100.00
57904;BME280;43720;47.462;19.030;2024-02-23T06:31:13;99114.97;;;8.56;100.00
57904;BME280;43720;47.462;19.030;2024-02-23T06:34:15;99116.69;;;8.51;100.00
57904;BME280;43720;47.462;19.030;2024-02-23T06:37:18;99111.50;;;8.53;100.00
57904;BME280;43720;47.462;19.030;2024-02-23T06:40:20;99118.44;;;8.54;100.00
57904;BME280;43720;47.462;19.030;2024-02-23T06:43:22;99121.03;;;8.54;100.00
57904;BME280;43720;47.462;19.030;2024-02-23T06:46:25;99115.84;;;8.69;100.00
57904;BME280;43720;47.462;19.030;2024-02-23T06:49:27;99121.94;;;8.74;100.00
57904;BME280;43720;47.462;19.030;2024-02-23T06:52:29;99112.41;;;8.79;100.00
57904;BME280;43720;47.462;19.030;2024-02-23T06:55:34;99123.69;;;8.80;100.00
57904;BME280;43720;47.462;19.030;2024-02-23T06:58:36;99127.16;;;8.76;100.00
57904;BME280;43720;47.462;19.030;2024-02-23T07:01:50;99128.91;;;8.72;100.00
57904;BME280;43720;47.462;19.030;2024-02-23T07:04:53;99134.09;;;8.72;100.00
57904;BME280;43720;47.462;19.030;2024-02-23T07:07:56;99129.75;;;8.73;100.00
57904;BME280;43720;47.462;19.030;2024-02-23T07:10:59;99132.34;;;8.70;100.00
57904;BME280;43720;47.462;19.030;2024-02-23T07:14:02;99133.25;;;8.72;100.00
57904;BME280;43720;47.462;19.030;2024-02-23T07:17:05;99129.78;;;8.76;100.00
57904;BME280;43720;47.462;19.030;2024-02-23T07:20:08;99131.53;;;8.88;100.00
57904;BME280;43720;47.462;19.030;2024-02-23T07:23:11;99138.47;;;8.89;100.00
57904;BME280;43720;47.462;19.030;2024-02-23T07:26:13;99141.06;;;8.84;100.00
57904;BME280;43720;47.462;19.030;2024-02-23T07:29:15;99148.88;;;8.86;100.00
57904;BME280;43720;47.462;19.030;2024-02-23T07:32:20;99147.16;;;8.94;100.00
57904;BME280;43720;47.462;19.030;2024-02-23T07:35:23;99152.38;;;9.00;100.00
57904;BME280;43720;47.462;19.030;2024-02-23T07:38:25;99146.28;;;8.98;100.00
57904;BME280;43720;47.462;19.030;2024-02-23T07:41:28;99148.91;;;9.02;100.00
57904;BME280;43720;47.462;19.030;2024-02-23T07:44:30;99150.66;;;9.08;100.00
57904;BME280;43720;47.462;19.030;2024-02-23T07:47:33;99152.38;;;9.04;100.00
57904;BME280;43720;47.462;19.030;2024-02-23T07:50:35;99159.34;;;9.09;100.00
57904;BME280;43720;47.462;19.030;2024-02-23T07:53:38;99160.19;;;9.00;100.00
57904;BME280;43720;47.462;19.030;2024-02-23T07:56:40;99158.44;;;8.97;100.00
57904;BME280;43720;47.462;19.030;2024-02-23T07:59:43;99156.72;;;9.04;100.00
57904;BME280;43720;47.462;19.030;2024-02-23T08:02:45;99161.94;;;8.98;100.00
57904;BME280;43720;47.462;19.030;2024-02-23T08:05:47;99159.34;;;8.95;100.00
57904;BME280;43720;47.462;19.030;2024-02-23T08:08:50;99164.56;;;8.95;100.00
57904;BME280;43720;47.462;19.030;2024-02-23T08:11:56;99168.88;;;8.91;100.00
57904;BME280;43720;47.462;19.030;2024-02-23T08:14:58;99174.94;;;8.84;100.00
57904;BME280;43720;47.462;19.030;2024-02-23T08:18:00;99177.59;;;8.95;100.00
57904;BME280;43720;47.462;19.030;2024-02-23T08:21:03;99181.03;;;9.01;100.00
57904;BME280;43720;47.462;19.030;2024-02-23T08:24:08;99182.81;;;9.07;100.00
57904;BME280;43720;47.462;19.030;2024-02-23T08:27:11;99181.94;;;9.14;100.00
57904;BME280;43720;47.462;19.030;2024-02-23T08:30:14;99187.19;;;9.22;100.00
57904;BME280;43720;47.462;19.030;2024-02-23T08:33:17;99188.91;;;9.30;100.00
57904;BME280;43720;47.462;19.030;2024-02-23T08:36:21;99190.63;;;9.28;100.00
57904;BME280;43720;47.462;19.030;2024-02-23T08:39:24;99193.25;;;9.33;100.00
57904;BME280;43720;47.462;19.030;2024-02-23T08:42:26;99200.19;;;9.40;100.00
57904;BME280;43720;47.462;19.030;2024-02-23T08:45:28;99195.88;;;9.42;100.00
57904;BME280;43720;47.462;19.030;2024-02-23T08:48:31;99199.34;;;9.41;100.00
57904;BME280;43720;47.462;19.030;2024-02-23T08:51:33;99195.84;;;9.47;100.00
57904;BME280;43720;47.462;19.030;2024-02-23T08:54:36;99206.28;;;9.56;100.00
57904;BME280;43720;47.462;19.030;2024-02-23T08:57:39;99200.22;;;9.54;100.00
57904;BME280;43720;47.462;19.030;2024-02-23T09:00:42;99212.41;;;9.64;100.00
57904;BME280;43720;47.462;19.030;2024-02-23T09:03:44;99214.97;;;9.60;100.00
57904;BME280;43720;47.462;19.030;2024-02-23T09:06:46;99213.25;;;9.55;100.00
57904;BME280;43720;47.462;19.030;2024-02-23T09:09:49;99214.13;;;9.53;100.00
57904;BME280;43720;47.462;19.030;2024-02-23T09:12:51;99215.00;;;9.58;100.00
57904;BME280;43720;47.462;19.030;2024-02-23T09:15:53;99213.25;;;9.65;100.00
57904;BME280;43720;47.462;19.030;2024-02-23T09:18:56;99219.34;;;9.68;100.00
57904;BME280;43720;47.462;19.030;2024-02-23T09:21:58;99216.72;;;9.77;100.00
57904;BME280;43720;47.462;19.030;2024-02-23T09:25:02;99224.53;;;9.85;100.00
57904;BME280;43720;47.462;19.030;2024-02-23T09:28:07;99227.16;;;9.84;100.00
57904;BME280;43720;47.462;19.030;2024-02-23T09:31:09;99219.31;;;9.77;100.00
57904;BME280;43720;47.462;19.030;2024-02-23T09:34:12;99224.53;;;9.85;100.00
57904;BME280;43720;47.462;19.030;2024-02-23T09:37:14;99218.44;;;9.94;100.00
57904;BME280;43720;47.462;19.030;2024-02-23T09:40:17;99216.72;;;9.88;100.00
57904;BME280;43720;47.462;19.030;2024-02-23T09:43:21;99223.69;;;9.88;100.00
57904;BME280;43720;47.462;19.030;2024-02-23T09:46:25;99220.19;;;9.92;100.00
57904;BME280;43720;47.462;19.030;2024-02-23T09:49:28;99219.31;;;9.91;100.00
57904;BME280;43720;47.462;19.030;2024-02-23T09:52:32;99226.28;;;9.88;100.00
57904;BME280;43720;47.462;19.030;2024-02-23T09:55:34;99231.50;;;9.95;100.00
57904;BME280;43720;47.462;19.030;2024-02-23T09:58:39;99230.63;;;9.86;100.00
57904;BME280;43720;47.462;19.030;2024-02-23T10:01:54;99234.09;;;9.91;100.00
57904;BME280;43720;47.462;19.030;2024-02-23T10:04:59;99236.72;;;9.89;100.00
57904;BME280;43720;47.462;19.030;2024-02-23T10:08:03;99236.69;;;9.91;100.00
57904;BME280;43720;47.462;19.030;2024-02-23T10:11:06;99233.22;;;9.96;100.00
57904;BME280;43720;47.462;19.030;2024-02-23T10:14:10;99238.44;;;10.05;100.00
57904;BME280;43720;47.462;19.030;2024-02-23T10:17:13;99237.56;;;10.05;100.00
57904;BME280;43720;47.462;19.030;2024-02-23T10:20:15;99240.16;;;10.05;100.00
57904;BME280;43720;47.462;19.030;2024-02-23T10:23:18;99228.84;;;10.15;100.00
57904;BME280;43720;47.462;19.030;2024-02-23T10:26:22;99234.06;;;10.12;100.00
57904;BME280;43720;47.462;19.030;2024-02-23T10:29:26;99239.31;;;10.11;100.00
57904;BME280;43720;47.462;19.030;2024-02-23T10:32:29;99236.69;;;10.04;100.00
57904;BME280;43720;47.462;19.030;2024-02-23T10:35:38;99245.41;;;10.03;100.00
57904;BME280;43720;47.462;19.030;2024-02-23T10:38:44;99251.47;;;10.16;100.00
57904;BME280;43720;47.462;19.030;2024-02-23T10:41:57;99238.41;;;10.22;100.00
57904;BME280;43720;47.462;19.030;2024-02-23T10:45:02;99240.13;;;10.29;100.00
57904;BME280;43720;47.462;19.030;2024-02-23T10:48:08;99240.16;;;10.34;100.00
57904;BME280;43720;47.462;19.030;2024-02-23T10:51:13;99237.50;;;10.37;100.00
57904;BME280;43720;47.462;19.030;2024-02-23T10:54:22;99235.72;;;10.51;100.00
57904;BME280;43720;47.462;19.030;2024-02-23T10:57:25;99239.19;;;10.52;100.00
57904;BME280;43720;47.462;19.030;2024-02-23T11:00:28;99234.84;;;10.57;100.00
57904;BME280;43720;47.462;19.030;2024-02-23T11:03:31;99234.81;;;10.63;100.00
57904;BME280;43720;47.462;19.030;2024-02-23T11:06:35;99238.22;;;10.76;100.00
57904;BME280;43720;47.462;19.030;2024-02-23T11:09:37;99229.47;;;10.89;100.00
57904;BME280;43720;47.462;19.030;2024-02-23T11:12:40;99234.62;;;11.00;100.00
57904;BME280;43720;47.462;19.030;2024-02-23T11:15:42;99230.13;;;11.22;100.00
57904;BME280;43720;47.462;19.030;2024-02-23T11:18:45;99236.16;;;11.30;100.00
57904;BME280;43720;47.462;19.030;2024-02-23T11:21:52;99236.94;;;11.44;100.00
57904;BME280;43720;47.462;19.030;2024-02-23T11:25:00;99236.94;;;11.44;100.00
57904;BME280;43720;47.462;19.030;2024-02-23T11:28:03;99237.84;;;11.40;100.00
57904;BME280;43720;47.462;19.030;2024-02-23T11:31:12;99239.53;;;11.47;100.00
57904;BME280;43720;47.462;19.030;2024-02-23T11:34:22;99239.59;;;11.40;100.00
57904;BME280;43720;47.462;19.030;2024-02-23T11:37:30;99241.50;;;11.15;100.00
57904;BME280;43720;47.462;19.030;2024-02-23T11:40:34;99238.03;;;11.16;100.00
57904;BME280;43720;47.462;19.030;2024-02-23T11:43:37;99231.00;;;11.21;100.00
57904;BME280;43720;47.462;19.030;2024-02-23T11:46:40;99230.97;;;11.22;100.00
57904;BME280;43720;47.462;19.030;2024-02-23T11:49:43;99225.69;;;11.30;100.00
57904;BME280;43720;47.462;19.030;2024-02-23T11:52:46;99228.31;;;11.30;100.00
57904;BME280;43720;47.462;19.030;2024-02-23T11:55:49;99223.94;;;11.34;100.00
57904;BME280;43720;47.462;19.030;2024-02-23T11:58:51;99218.66;;;11.38;100.00
57904;BME280;43720;47.462;19.030;2024-02-23T12:01:53;99211.69;;;11.37;100.00
57904;BME280;43720;47.462;19.030;2024-02-23T12:04:56;99209.81;;;11.55;100.00
57904;BME280;43720;47.462;19.030;2024-02-23T12:07:59;99213.34;;;11.50;100.00
57904;BME280;43720;47.462;19.030;2024-02-23T12:11:02;99208.97;;;11.51;100.00
57904;BME280;43720;47.462;19.030;2024-02-23T12:14:10;99203.69;;;11.57;100.00
57904;BME280;43720;47.462;19.030;2024-02-23T12:17:21;99200.00;;;11.76;100.00
57904;BME280;43720;47.462;19.030;2024-02-23T12:20:24;99195.44;;;12.05;100.00
57904;BME280;43720;47.462;19.030;2024-02-23T12:23:57;99195.22;;;12.24;100.00
57904;BME280;43720;47.462;19.030;2024-02-23T12:26:59;99202.88;;;12.40;100.00
57904;BME280;43720;47.462;19.030;2024-02-23T12:30:02;99187.94;;;12.48;100.00
57904;BME280;43720;47.462;19.030;2024-02-23T12:33:06;99190.78;;;12.30;100.00
57904;BME280;43720;47.462;19.030;2024-02-23T12:36:10;99196.25;;;12.08;100.00
57904;BME280;43720;47.462;19.030;2024-02-23T12:39:12;99200.75;;;11.97;100.00
57904;BME280;43720;47.462;19.030;2024-02-23T12:42:17;99206.91;;;11.90;100.00
57904;BME280;43720;47.462;19.030;2024-02-23T12:45:20;99207.91;;;11.72;100.00
57904;BME280;43720;47.462;19.030;2024-02-23T12:48:22;99213.25;;;11.61;100.00
57904;BME280;43720;47.462;19.030;2024-02-23T12:51:25;99209.88;;;11.50;100.00
57904;BME280;43720;47.462;19.030;2024-02-23T12:54:29;99210.75;;;11.46;100.00
57904;BME280;43720;47.462;19.030;2024-02-23T12:57:31;99201.19;;;11.43;100.00
57904;BME280;43720;47.462;19.030;2024-02-23T13:00:33;99210.81;;;11.43;100.00
57904;BME280;43720;47.462;19.030;2024-02-23T13:03:38;99212.44;;;11.53;100.00
57904;BME280;43720;47.462;19.030;2024-02-23T13:06:42;99209.00;;;11.48;100.00
57904;BME280;43720;47.462;19.030;2024-02-23T13:09:49;99205.53;;;11.47;100.00
57904;BME280;43720;47.462;19.030;2024-02-23T13:12:52;99208.19;;;11.40;100.00
57904;BME280;43720;47.462;19.030;2024-02-23T13:15:55;99213.41;;;11.41;100.00
57904;BME280;43720;47.462;19.030;2024-02-23T13:18:58;99215.25;;;11.32;100.00
57904;BME280;43720;47.462;19.030;2024-02-23T13:22:00;99210.81;;;11.43;100.00
57904;BME280;43720;47.462;19.030;2024-02-23T13:25:03;99212.59;;;11.33;100.00
57904;BME280;43720;47.462;19.030;2024-02-23T13:28:07;99218.66;;;11.38;100.00
57904;BME280;43720;47.462;19.030;2024-02-23T13:31:12;99215.22;;;11.30;100.00
57904;BME280;43720;47.462;19.030;2024-02-23T13:34:15;99212.62;;;11.32;100.00
57904;BME280;43720;47.462;19.030;2024-02-23T13:37:20;99209.16;;;11.26;100.00
57904;BME280;43720;47.462;19.030;2024-02-23T13:40:22;99207.50;;;11.16;100.00
57904;BME280;43720;47.462;19.030;2024-02-23T13:43:24;99210.94;;;11.21;100.00
57904;BME280;43720;47.462;19.030;2024-02-23T13:46:26;99205.75;;;11.17;100.00
57904;BME280;43720;47.462;19.030;2024-02-23T13:49:29;99202.28;;;11.10;100.00
57904;BME280;43720;47.462;19.030;2024-02-23T13:52:31;99195.38;;;11.05;100.00
57904;BME280;43720;47.462;19.030;2024-02-23T13:55:34;99195.34;;;11.06;100.00
57904;BME280;43720;47.462;19.030;2024-02-23T13:58:36;99182.25;;;11.12;100.00
57904;BME280;43720;47.462;19.030;2024-02-23T14:01:38;99190.06;;;11.17;100.00
57904;BME280;43720;47.462;19.030;2024-02-23T14:04:41;99182.19;;;11.18;100.00
57904;BME280;43720;47.462;19.030;2024-02-23T14:07:43;99177.81;;;11.23;100.00
57904;BME280;43720;47.462;19.030;2024-02-23T14:10:46;99180.38;;;11.26;100.00
57904;BME280;43720;47.462;19.030;2024-02-23T14:13:48;99176.00;;;11.30;100.00
57904;BME280;43720;47.462;19.030;2024-02-23T14:16:53;99177.75;;;11.26;100.00
57904;BME280;43720;47.462;19.030;2024-02-23T14:19:56;99173.41;;;11.29;100.00
57904;BME280;43720;47.462;19.030;2024-02-23T14:22:58;99180.31;;;11.34;100.00
57904;BME280;43720;47.462;19.030;2024-02-23T14:26:01;99179.50;;;11.31;100.00
57904;BME280;43720;47.462;19.030;2024-02-23T14:29:03;99181.31;;;11.21;100.00
57904;BME280;43720;47.462;19.030;2024-02-23T14:32:06;99188.31;;;11.14;100.00
57904;BME280;43720;47.462;19.030;2024-02-23T14:35:08;99175.28;;;11.10;100.00
57904;BME280;43720;47.462;19.030;2024-02-23T14:38:11;99177.94;;;11.05;100.00
57904;BME280;43720;47.462;19.030;2024-02-23T14:41:14;99179.66;;;11.08;100.00
57904;BME280;43720;47.462;19.030;2024-02-23T14:44:16;99184.09;;;10.96;100.00
57904;BME280;43720;47.462;19.030;2024-02-23T14:47:19;99174.53;;;10.92;100.00
57904;BME280;43720;47.462;19.030;2024-02-23T14:50:30;99179.72;;;10.95;100.00
57904;BME280;43720;47.462;19.030;2024-02-23T14:53:33;99177.97;;;10.99;100.00
57904;BME280;43720;47.462;19.030;2024-02-23T14:56:35;99173.66;;;10.93;100.00
57904;BME280;43720;47.462;19.030;2024-02-23T14:59:38;99171.03;;;10.92;100.00
57904;BME280;43720;47.462;19.030;2024-02-23T15:02:49;99172.75;;;10.94;100.00
57904;BME280;43720;47.462;19.030;2024-02-23T15:05:51;99169.31;;;10.91;100.00
57904;BME280;43720;47.462;19.030;2024-02-23T15:08:54;99171.06;;;10.89;100.00
57904;BME280;43720;47.462;19.030;2024-02-23T15:11:56;99164.09;;;10.88;100.00
57904;BME280;43720;47.462;19.030;2024-02-23T15:14:58;99168.44;;;10.90;100.00
57904;BME280;43720;47.462;19.030;2024-02-23T15:18:01;99163.19;;;10.90;100.00
57904;BME280;43720;47.462;19.030;2024-02-23T15:21:04;99151.00;;;10.88;100.00
57904;BME280;43720;47.462;19.030;2024-02-23T15:24:07;99153.63;;;10.88;100.00
57904;BME280;43720;47.462;19.030;2024-02-23T15:27:09;99152.72;;;10.95;100.00
57904;BME280;43720;47.462;19.030;2024-02-23T15:30:11;99161.44;;;10.97;100.00
57904;BME280;43720;47.462;19.030;2024-02-23T15:33:14;99162.34;;;10.90;100.00
57904;BME280;43720;47.462;19.030;2024-02-23T15:36:17;99155.37;;;10.87;100.00
57904;BME280;43720;47.462;19.030;2024-02-23T15:39:19;99150.19;;;10.84;100.00
57904;BME280;43720;47.462;19.030;2024-02-23T15:42:21;99162.37;;;10.88;100.00
57904;BME280;43720;47.462;19.030;2024-02-23T15:45:24;99167.59;;;10.87;100.00
57904;BME280;43720;47.462;19.030;2024-02-23T15:48:26;99159.69;;;10.91;100.00
57904;BME280;43720;47.462;19.030;2024-02-23T15:51:28;99159.75;;;10.87;100.00
57904;BME280;43720;47.462;19.030;2024-02-23T15:54:53;99165.84;;;10.89;100.00
57904;BME280;43720;47.462;19.030;2024-02-23T15:57:55;99162.37;;;10.85;100.00
57904;BME280;43720;47.462;19.030;2024-02-23T16:00:57;99161.47;;;10.88;100.00
57904;BME280;43720;47.462;19.030;2024-02-23T16:04:00;99163.28;;;10.81;100.00
57904;BME280;43720;47.462;19.030;2024-02-23T16:07:02;99163.28;;;10.81;100.00
57904;BME280;43720;47.462;19.030;2024-02-23T16:10:06;99163.28;;;10.81;100.00
57904;BME280;43720;47.462;19.030;2024-02-23T16:13:08;99160.66;;;10.80;100.00
57904;BME280;43720;47.462;19.030;2024-02-23T16:16:11;99150.19;;;10.80;100.00
